Time;durP1;ratioP1;P1;durP2;ratioP2;P2;SDS_P1;SDS_P2;PMS_P1;PMS_P2;Temp;Humidity;BMP_temperature;BMP_pressure;BME280_temperature;BME280_humidity;BME280_pressure;Samples;Min_cycle;Max_cycle;Signal;HPM_P1;HPM_P2
2023/09/25 00:01:43;;;;;;;6.57;2.83;;;;;;;;;;5063146;28;20041;-86
2023/09/25 00:04:09;;;;;;;4.90;2.45;;;;;;;;;;5054724;28;20052;-88
2023/09/25 00:06:35;;;;;;;8.23;2.95;;;;;;;;;;5057197;28;20047;-85
2023/09/25 00:09:05;;;;;;;5.95;3.05;;;10.60;99.90;;;;;;5051734;28;20048;-83
2023/09/25 00:11:32;;;;;;;5.90;2.63;;;;;;;;;;5054499;28;20177;-87
2023/09/25 00:13:58;;;;;;;5.50;2.45;;;;;;;;;;5055142;28;20595;-83
2023/09/25 00:16:25;;;;;;;5.32;2.80;;;;;;;;;;5055490;28;20556;-87
2023/09/25 00:18:54;;;;;;;8.13;2.70;;;;;;;;;;5051413;28;20094;-87
2023/09/25 00:21:20;;;;;;;4.72;2.88;;;;;;;;;;5052875;28;20040;-86
2023/09/25 00:26:08;;;;;;;5.25;2.85;;;;;;;;;;5134714;27;20400;-85
2023/09/25 00:28:39;;;;;;;4.60;2.50;;;11.10;99.90;;;;;;5095409;28;20405;-88
2023/09/25 00:31:04;;;;;;;4.63;2.67;;;11.20;99.90;;;;;;5087152;28;20051;-87
2023/09/25 00:33:30;;;;;;;4.97;2.72;;;11.20;99.90;;;;;;5070800;28;20046;-86
2023/09/25 00:35:58;;;;;;;4.38;3.35;;;11.20;99.90;;;;;;5090470;28;20055;-85
2023/09/25 00:38:27;;;;;;;4.95;3.03;;;11.20;99.90;;;;;;5072054;28;20040;-86
2023/09/25 00:40:53;;;;;;;5.85;2.85;;;11.30;99.90;;;;;;5067981;28;20074;-85
2023/09/25 00:43:19;;;;;;;5.00;2.45;;;11.30;99.90;;;;;;5068687;28;20048;-90
2023/09/25 00:45:47;;;;;;;3.83;2.63;;;11.30;99.90;;;;;;5080440;28;20054;-84
2023/09/25 00:48:27;;;;;;;5.47;2.60;;;11.40;99.90;;;;;;5074334;28;20068;-87
2023/09/25 00:50:59;;;;;;;4.00;2.25;;;11.40;99.90;;;;;;5072881;28;20071;-86
2023/09/25 00:53:29;;;;;;;3.80;2.15;;;12.90;99.90;;;;;;5069091;28;20185;-86
2023/09/25 00:55:55;;;;;;;4.35;2.35;;;11.40;99.90;;;;;;5068659;28;20517;-87
2023/09/25 00:58:21;;;;;;;3.70;2.10;;;11.40;99.90;;;;;;5069334;28;20127;-85
2023/09/25 01:00:47;;;;;;;5.10;2.15;;;11.40;99.90;;;;;;5068891;28;20043;-87
2023/09/25 01:03:13;;;;;;;4.88;2.55;;;11.40;99.90;;;;;;5067666;28;20443;-90
2023/09/25 01:05:39;;;;;;;5.68;2.10;;;11.40;99.90;;;;;;5067257;28;20047;-86
2023/09/25 01:08:07;;;;;;;6.32;2.15;;;12.00;99.90;;;;;;5071718;28;20043;-85
2023/09/25 01:10:33;;;;;;;4.13;2.03;;;11.30;99.90;;;;;;5072158;28;20138;-88
2023/09/25 01:13:00;;;;;;;3.40;2.10;;;11.40;99.90;;;;;;5071475;28;20047;-86
2023/09/25 01:15:26;;;;;;;6.10;2.08;;;11.40;99.90;;;;;;5066359;28;20044;-86
2023/09/25 01:17:52;;;;;;;3.42;2.38;;;11.30;99.90;;;;;;5062298;28;20086;-86
2023/09/25 01:20:19;;;;;;;3.80;2.03;;;12.70;99.90;;;;;;5082624;28;20063;-86
2023/09/25 01:22:54;;;;;;;5.50;2.38;;;12.00;99.90;;;;;;5068940;28;20046;-84
2023/09/25 01:25:23;;;;;;;5.07;1.98;;;11.40;99.90;;;;;;5062281;28;20090;-84
2023/09/25 01:27:49;;;;;;;4.50;2.20;;;11.30;99.90;;;;;;5059860;28;20044;-88
2023/09/25 01:30:16;;;;;;;7.25;2.33;;;11.20;99.90;;;;;;5064901;28;20051;-83
2023/09/25 01:32:44;;;;;;;6.55;2.05;;;11.40;99.90;;;;;;5064338;28;20039;-86
2023/09/25 01:35:30;;;;;;;3.90;2.08;;;11.10;99.90;;;;;;5062412;28;20063;-85
2023/09/25 01:37:58;;;;;;;5.57;1.88;;;11.30;99.90;;;;;;5067228;28;20044;-85
2023/09/25 01:40:27;;;;;;;6.70;2.08;;;11.10;99.90;;;;;;5055519;28;20045;-85
2023/09/25 01:42:55;;;;;;;5.85;2.47;;;11.00;99.90;;;;;;5073473;28;20088;-86
2023/09/25 01:45:31;;;;;;;3.78;2.17;;;11.80;99.90;;;;;;5052694;28;20191;-85
2023/09/25 01:47:57;;;;;;;3.60;2.30;;;11.20;99.90;;;;;;5069089;28;20052;-85
2023/09/25 01:50:25;;;;;;;5.35;2.67;;;11.20;99.90;;;;;;5049892;28;20409;-84
2023/09/25 01:52:57;;;;;;;4.18;2.00;;;11.20;99.90;;;;;;5049249;28;20041;-85
2023/09/25 01:55:27;;;;;;;4.65;1.88;;;11.00;99.90;;;;;;5042827;28;20118;-84
2023/09/25 01:57:53;;;;;;;5.03;2.25;;;11.00;99.90;;;;;;5049665;28;20102;-87
2023/09/25 02:00:19;;;;;;;6.28;2.20;;;11.00;99.90;;;;;;5049781;28;20187;-85
2023/09/25 02:02:46;;;;;;;5.93;2.50;;;11.00;99.90;;;;;;5052889;28;20048;-91
2023/09/25 02:05:15;;;;;;;7.15;2.60;;;10.90;99.90;;;;;;5050224;28;20051;-86
2023/09/25 02:07:41;;;;;;;5.82;2.10;;;10.90;99.90;;;;;;5053478;28;20041;-85
2023/09/25 02:10:07;;;;;;;5.65;2.80;;;10.90;99.90;;;;;;5075789;28;20609;-86
2023/09/25 02:12:33;;;;;;;4.60;2.85;;;10.90;99.90;;;;;;5049077;28;20052;-91
2023/09/25 02:15:02;;;;;;;3.70;2.13;;;10.90;99.90;;;;;;5061573;28;20040;-83
2023/09/25 02:17:31;;;;;;;7.38;2.67;;;11.80;99.90;;;;;;5067462;28;20048;-86
2023/09/25 02:20:39;;;;;;;4.55;2.55;;;10.80;99.90;;;;;;5072788;28;20044;-86
2023/09/25 02:22:47;;;;;;;3.53;2.10;;;10.90;99.90;;;;;;5063344;28;20126;-85
2023/09/25 02:25:14;;;;;;;4.90;2.50;;;;;;;;;;5049773;28;20052;-85
2023/09/25 02:27:40;;;;;;;5.45;3.00;;;;;;;;;;5060331;28;20521;-85
2023/09/25 02:30:10;;;;;;;6.70;3.22;;;10.70;99.90;;;;;;5075664;28;20661;-86
2023/09/25 02:32:41;;;;;;;6.97;2.33;;;10.80;99.90;;;;;;5104882;28;20040;-85
2023/09/25 02:35:07;;;;;;;3.72;2.63;;;10.60;99.90;;;;;;5105459;28;20097;-84
2023/09/25 02:37:34;;;;;;;4.20;2.42;;;10.70;99.90;;;;;;5111028;27;20034;-85
2023/09/25 02:40:00;;;;;;;6.68;2.63;;;;;;;;;;5077230;28;20095;-85
2023/09/25 02:42:27;;;;;;;4.05;2.60;;;;;;;;;;5083344;27;20039;-86
2023/09/25 02:44:53;;;;;;;4.75;2.67;;;;;;;;;;5081443;28;20048;-88
2023/09/25 02:47:19;;;;;;;3.78;2.90;;;;;;;;;;5072861;28;20607;-85
2023/09/25 02:49:45;;;;;;;4.45;2.90;;;;;;;;;;5073439;28;20047;-87
2023/09/25 02:52:11;;;;;;;4.90;2.95;;;;;;;;;;5073651;28;20043;-85
2023/09/25 02:54:37;;;;;;;4.10;3.00;;;10.60;99.90;;;;;;5067076;28;20055;-86
2023/09/25 02:57:03;;;;;;;4.40;3.15;;;;;;;;;;5110858;27;20039;-92
2023/09/25 02:59:30;;;;;;;4.78;3.10;;;;;;;;;;5076529;28;20042;-87
2023/09/25 03:01:56;;;;;;;8.07;3.17;;;;;;;;;;5075163;27;20035;-87
2023/09/25 03:04:22;;;;;;;4.97;3.42;;;;;;;;;;5070429;28;20059;-86
2023/09/25 03:06:48;;;;;;;5.95;3.33;;;;;;;;;;5072268;28;20047;-86
2023/09/25 03:09:14;;;;;;;5.95;3.08;;;;;;;;;;5074212;28;20086;-87
2023/09/25 03:11:40;;;;;;;5.60;3.35;;;10.30;99.90;;;;;;5088289;28;20036;-86
2023/09/25 03:14:06;;;;;;;5.25;3.22;;;;;;;;;;5104658;28;20047;-85
2023/09/25 03:16:41;;;;;;;4.30;2.83;;;10.40;99.90;;;;;;5071435;28;20036;-90
2023/09/25 03:19:07;;;;;;;4.82;2.97;;;;;;;;;;5087764;28;20040;-85
2023/09/25 03:21:33;;;;;;;5.45;3.03;;;;;;;;;;5087489;28;20109;-88
2023/09/25 03:24:00;;;;;;;6.13;3.20;;;10.40;99.90;;;;;;5085037;28;20041;-87
2023/09/25 03:26:32;;;;;;;6.22;3.45;;;10.40;99.90;;;;;;5087669;28;20831;-90
2023/09/25 03:28:58;;;;;;;6.55;3.35;;;;;;;;;;5082632;28;20120;-87
2023/09/25 03:31:24;;;;;;;7.63;2.83;;;;;;;;;;5070324;27;20036;-88
2023/09/25 03:33:50;;;;;;;5.72;3.22;;;;;;;;;;5082611;27;20116;-84
2023/09/25 03:36:17;;;;;;;5.40;3.28;;;;;;;;;;5087472;28;20118;-87
2023/09/25 03:38:43;;;;;;;7.35;3.42;;;;;;;;;;5091575;28;20433;-87
2023/09/25 03:41:09;;;;;;;5.07;3.40;;;;;;;;;;5067869;28;20035;-88
2023/09/25 03:43:35;;;;;;;6.47;3.40;;;;;;;;;;5066774;28;20051;-87
2023/09/25 03:46:02;;;;;;;4.47;3.50;;;10.40;99.90;;;;;;5066795;28;20130;-85
2023/09/25 03:48:28;;;;;;;7.18;3.40;;;10.40;99.90;;;;;;5090535;27;20759;-86
2023/09/25 03:50:54;;;;;;;6.43;3.13;;;10.30;99.90;;;;;;5071080;28;20043;-86
2023/09/25 03:53:19;;;;;;;6.50;3.28;;;10.50;99.90;;;;;;5104769;28;20300;-88
2023/09/25 03:55:46;;;;;;;6.10;3.95;;;10.50;99.90;;;;;;5115576;27;20043;-85
2023/09/25 03:58:11;;;;;;;7.15;3.83;;;10.50;99.90;;;;;;5076462;28;20112;-87
2023/09/25 04:00:40;;;;;;;4.15;3.28;;;10.60;99.90;;;;;;5069735;28;20497;-93
2023/09/25 04:03:07;;;;;;;6.10;3.47;;;10.50;99.90;;;;;;5085433;27;20047;-86
2023/09/25 04:05:33;;;;;;;6.40;3.60;;;10.50;99.90;;;;;;5083621;27;20070;-89
2023/09/25 04:08:00;;;;;;;4.75;3.22;;;9.20;99.90;;;;;;5106378;28;20074;-88
2023/09/25 04:10:29;;;;;;;4.35;3.42;;;10.50;99.90;;;;;;5106562;28;20127;-89
2023/09/25 04:12:58;;;;;;;6.65;3.47;;;9.90;99.90;;;;;;5106441;28;20039;-88
2023/09/25 04:15:31;;;;;;;5.45;3.35;;;10.40;99.90;;;;;;5104836;28;20050;-86
2023/09/25 04:17:57;;;;;;;5.03;3.50;;;11.30;99.90;;;;;;5114830;27;20102;-87
2023/09/25 04:20:26;;;;;;;5.35;3.65;;;10.40;99.90;;;;;;5105384;28;20043;-86
2023/09/25 04:22:59;;;;;;;7.75;3.60;;;11.80;99.90;;;;;;5105915;28;20411;-87
2023/09/25 04:25:26;;;;;;;7.82;3.35;;;10.40;99.90;;;;;;5105142;28;20124;-86
2023/09/25 04:27:54;;;;;;;6.18;3.53;;;10.90;99.90;;;;;;5093723;28;20039;-86
2023/09/25 04:30:21;;;;;;;6.00;3.30;;;11.00;99.90;;;;;;5108885;28;20069;-87
2023/09/25 04:32:49;;;;;;;5.70;3.33;;;10.50;99.90;;;;;;5111520;28;20118;-86
2023/09/25 04:35:18;;;;;;;5.10;3.30;;;10.90;99.90;;;;;;5104247;28;20127;-86
2023/09/25 04:37:44;;;;;;;10.63;3.78;;;10.50;99.90;;;;;;5093154;28;20439;-85
2023/09/25 04:40:30;;;;;;;6.50;3.35;;;10.50;99.90;;;;;;5114933;28;20048;-89
2023/09/25 04:43:00;;;;;;;6.78;3.53;;;10.40;99.90;;;;;;5076660;28;20047;-86
2023/09/25 04:45:29;;;;;;;6.28;3.05;;;10.40;99.90;;;;;;5105506;28;20045;-88
2023/09/25 04:47:58;;;;;;;5.57;3.42;;;10.50;99.90;;;;;;5110033;28;20046;-86
2023/09/25 04:50:24;;;;;;;5.60;3.05;;;10.40;99.90;;;;;;5108160;28;20098;-85
2023/09/25 04:52:50;;;;;;;5.28;3.22;;;10.40;99.90;;;;;;5075340;28;20056;-86
2023/09/25 04:55:16;;;;;;;6.05;3.67;;;10.80;99.90;;;;;;5109862;27;20872;-88
2023/09/25 04:57:46;;;;;;;6.47;3.20;;;10.50;99.90;;;;;;5079671;28;20031;-87
2023/09/25 05:00:17;;;;;;;6.53;3.40;;;10.50;99.90;;;;;;5106690;28;20039;-91
2023/09/25 05:02:47;;;;;;;4.43;3.30;;;10.50;99.90;;;;;;5090248;28;20044;-88
2023/09/25 05:05:14;;;;;;;6.32;3.28;;;9.40;99.90;;;;;;5090175;28;20045;-89
2023/09/25 05:07:46;;;;;;;5.22;3.22;;;11.40;99.90;;;;;;5103963;28;20515;-86
2023/09/25 05:10:21;;;;;;;7.83;3.17;;;10.50;99.90;;;;;;5070426;28;20036;-86
2023/09/25 05:12:47;;;;;;;4.57;2.90;;;10.50;99.90;;;;;;5111496;27;20104;-87
2023/09/25 05:15:14;;;;;;;7.03;3.63;;;10.50;99.90;;;;;;5112521;27;20051;-88
2023/09/25 05:17:44;;;;;;;5.43;3.08;;;10.60;99.90;;;;;;5113000;27;20043;-86
2023/09/25 05:20:18;;;;;;;6.13;3.13;;;11.40;99.90;;;;;;5086200;28;20046;-88
2023/09/25 05:22:48;;;;;;;4.05;2.80;;;10.90;99.90;;;;;;5078533;28;20048;-86
2023/09/25 05:25:15;;;;;;;4.68;3.00;;;10.70;99.90;;;;;;5067295;28;20061;-91
2023/09/25 05:27:59;;;;;;;3.58;2.55;;;10.60;99.90;;;;;;5058973;28;20048;-85
2023/09/25 05:30:25;;;;;;;5.43;2.80;;;10.70;99.90;;;;;;5057157;28;20075;-84
2023/09/25 05:32:54;;;;;;;5.75;3.30;;;10.60;99.90;;;;;;5086655;28;20075;-90
2023/09/25 05:35:20;;;;;;;5.10;2.53;;;10.70;99.90;;;;;;5053423;28;20041;-86
2023/09/25 05:37:48;;;;;;;4.63;2.80;;;10.70;99.90;;;;;;5055102;28;20036;-94
2023/09/25 05:40:15;;;;;;;4.47;2.75;;;10.70;99.90;;;;;;5052892;28;20040;-86
2023/09/25 05:42:54;;;;;;;4.82;2.60;;;11.00;99.90;;;;;;5057369;28;20691;-87
2023/09/25 05:45:21;;;;;;;5.05;2.78;;;10.70;99.90;;;;;;5051510;28;20047;-84
2023/09/25 05:47:47;;;;;;;4.20;2.40;;;10.70;99.90;;;;;;5051430;28;20903;-89
2023/09/25 05:50:16;;;;;;;4.60;2.50;;;11.40;99.90;;;;;;5052771;28;20110;-86
2023/09/25 05:52:42;;;;;;;5.13;2.50;;;12.50;99.90;;;;;;5049953;28;20040;-85
2023/09/25 05:55:10;;;;;;;4.88;2.63;;;10.80;99.90;;;;;;5071992;28;20053;-92
2023/09/25 05:57:36;;;;;;;4.63;2.72;;;10.90;99.90;;;;;;5039823;28;20071;-87
2023/09/25 06:00:12;;;;;;;5.38;2.60;;;11.00;99.90;;;;;;5052023;28;20121;-86
2023/09/25 06:02:42;;;;;;;4.50;2.28;;;11.00;99.90;;;;;;5052451;28;20045;-91
2023/09/25 06:05:09;;;;;;;14.15;2.72;;;11.10;99.90;;;;;;5057091;28;20101;-87
2023/09/25 06:07:35;;;;;;;4.25;2.80;;;11.20;99.90;;;;;;5059380;28;20036;-93
2023/09/25 06:10:04;;;;;;;6.82;2.50;;;11.20;99.90;;;;;;5050138;28;20044;-86
2023/09/25 06:12:39;;;;;;;3.35;2.22;;;11.30;99.90;;;;;;5049046;28;20599;-89
2023/09/25 06:15:09;;;;;;;4.13;2.92;;;11.40;99.90;;;;;;5067006;28;20521;-89
2023/09/25 06:17:39;;;;;;;5.07;2.22;;;11.40;99.90;;;;;;5051015;28;20096;-88
2023/09/25 06:20:13;;;;;;;3.92;2.00;;;9.00;99.90;;;;;;5064230;28;20533;-85
2023/09/25 06:22:46;;;;;;;9.60;4.72;;;11.50;99.90;;;;;;5053789;28;20103;-86
2023/09/25 06:25:17;;;;;;;5.50;2.17;;;11.70;99.90;;;;;;5063131;27;20057;-87
2023/09/25 06:27:44;;;;;;;4.60;2.40;;;11.60;99.90;;;;;;5091844;28;20039;-86
2023/09/25 06:30:11;;;;;;;6.15;2.40;;;11.70;99.90;;;;;;5092393;28;20039;-89
2023/09/25 06:32:37;;;;;;;3.90;2.13;;;11.80;99.90;;;;;;5091775;28;20833;-85
2023/09/25 06:35:06;;;;;;;4.20;2.15;;;11.80;99.90;;;;;;5073522;28;20531;-90
2023/09/25 06:37:32;;;;;;;3.70;2.58;;;11.90;99.90;;;;;;5109790;27;20042;-90
2023/09/25 06:39:58;;;;;;;3.53;2.03;;;11.70;99.90;;;;;;5071184;28;20050;-90
2023/09/25 06:42:23;;;;;;;4.78;2.35;;;12.10;99.90;;;;;;5119505;27;20047;-89
2023/09/25 06:44:49;;;;;;;4.65;1.70;;;12.30;99.90;;;;;;5108596;28;20044;-89
2023/09/25 06:47:15;;;;;;;6.13;1.73;;;12.30;99.90;;;;;;5111366;27;20068;-88
2023/09/25 06:49:43;;;;;;;3.38;1.80;;;12.40;99.90;;;;;;5073527;28;20463;-86
2023/09/25 06:52:09;;;;;;;5.65;1.83;;;12.50;99.90;;;;;;5107510;27;20039;-85
2023/09/25 06:54:35;;;;;;;4.22;1.58;;;12.60;99.90;;;;;;5068067;28;20047;-88
2023/09/25 06:57:00;;;;;;;7.05;2.03;;;12.70;99.90;;;;;;5100353;28;20035;-86
2023/09/25 06:59:27;;;;;;;4.97;2.03;;;12.90;99.90;;;;;;5103068;27;20040;-93
2023/09/25 07:01:53;;;;;;;2.80;2.03;;;13.00;99.90;;;;;;5086198;28;20149;-88
2023/09/25 07:04:21;;;;;;;2.75;1.48;;;13.10;99.90;;;;;;5102857;27;20563;-91
2023/09/25 07:06:50;;;;;;;5.68;2.38;;;13.40;99.90;;;;;;5105527;27;20180;-87
2023/09/25 07:09:16;;;;;;;6.78;2.17;;;13.50;99.90;;;;;;5101973;28;20903;-86
2023/09/25 07:11:42;;;;;;;5.00;1.80;;;13.60;99.90;;;;;;5124342;27;20452;-87
2023/09/25 07:14:07;;;;;;;3.25;1.40;;;13.70;99.90;;;;;;5109577;27;20043;-92
2023/09/25 07:16:35;;;;;;;4.28;2.08;;;13.70;99.90;;;;;;5107292;27;20035;-88
2023/09/25 07:19:00;;;;;;;3.33;1.42;;;13.80;99.90;;;;;;5075628;28;20046;-86
2023/09/25 07:21:26;;;;;;;4.05;1.90;;;13.90;99.90;;;;;;5086738;28;20040;-90
2023/09/25 07:23:55;;;;;;;3.50;1.23;;;14.00;99.90;;;;;;5066152;28;20157;-89
2023/09/25 07:26:21;;;;;;;3.60;1.55;;;14.10;99.90;;;;;;5044595;28;20059;-85
2023/09/25 07:28:49;;;;;;;2.70;1.50;;;14.20;99.90;;;;;;5051084;28;20040;-87
2023/09/25 07:31:19;;;;;;;3.55;1.73;;;14.30;99.90;;;;;;5059930;28;20042;-86
2023/09/25 07:33:45;;;;;;;7.90;1.50;;;14.40;99.90;;;;;;5047392;28;20036;-85
2023/09/25 07:36:11;;;;;;;2.65;1.45;;;14.60;99.90;;;;;;5065096;28;20075;-91
2023/09/25 07:38:37;;;;;;;3.33;1.60;;;14.70;99.90;;;;;;5048210;28;20064;-86
2023/09/25 07:41:05;;;;;;;2.50;1.35;;;14.60;99.90;;;;;;5048426;28;20115;-86
2023/09/25 07:43:32;;;;;;;3.75;1.92;;;;;;;;;;5049196;28;20100;-87
2023/09/25 07:45:57;;;;;;;3.58;1.10;;;15.00;99.90;;;;;;5051954;28;20052;-86
2023/09/25 07:48:23;;;;;;;4.32;1.67;;;15.10;99.90;;;;;;5049320;28;20058;-87
2023/09/25 07:50:50;;;;;;;4.72;1.30;;;15.30;99.90;;;;;;5060208;28;20036;-89
2023/09/25 07:53:16;;;;;;;5.03;1.85;;;15.40;99.90;;;;;;5047410;28;20077;-86
2023/09/25 07:55:42;;;;;;;5.22;1.45;;;15.60;99.90;;;;;;5044891;28;20037;-85
2023/09/25 07:58:11;;;;;;;3.75;1.83;;;15.70;99.90;;;;;;5046892;28;20040;-86
2023/09/25 08:00:39;;;;;;;5.50;1.42;;;15.80;99.90;;;;;;5046896;28;20047;-85
2023/09/25 08:03:09;;;;;;;4.18;1.20;;;15.80;99.90;;;;;;5063114;28;20536;-90
2023/09/25 08:05:36;;;;;;;3.28;1.30;;;15.90;99.90;;;;;;5048214;28;20044;-85
2023/09/25 08:08:02;;;;;;;3.30;1.35;;;16.00;99.90;;;;;;5046072;28;20057;-86
2023/09/25 08:10:28;;;;;;;3.13;1.10;;;16.10;99.90;;;;;;5066378;28;20903;-85
2023/09/25 08:12:54;;;;;;;5.72;1.10;;;16.20;99.90;;;;;;5044220;28;20103;-89
2023/09/25 08:15:21;;;;;;;4.70;1.00;;;16.20;99.90;;;;;;5060174;28;20632;-85
2023/09/25 08:17:47;;;;;;;3.60;0.95;;;16.20;99.90;;;;;;5040959;28;20043;-85
2023/09/25 08:20:29;;;;;;;4.47;1.02;;;16.20;99.90;;;;;;5042622;28;20044;-85
2023/09/25 08:22:55;;;;;;;4.53;1.27;;;14.90;99.90;;;;;;5057910;28;20091;-85
2023/09/25 08:25:22;;;;;;;5.43;1.15;;;16.40;99.90;;;;;;5034834;28;20399;-89
2023/09/25 08:27:48;;;;;;;2.45;1.02;;;16.50;99.90;;;;;;5045952;28;20052;-88
2023/09/25 08:30:31;;;;;;;3.80;1.10;;;15.10;99.90;;;;;;5032366;28;20122;-87
2023/09/25 08:32:57;;;;;;;3.58;0.93;;;16.90;99.90;;;;;;5015898;28;20040;-92
2023/09/25 08:35:25;;;;;;;3.72;0.93;;;17.20;99.90;;;;;;5020827;28;20925;-89
2023/09/25 08:37:55;;;;;;;3.05;1.23;;;17.60;99.90;;;;;;5018042;28;20037;-87
2023/09/25 08:40:21;;;;;;;2.03;0.82;;;20.00;99.90;;;;;;5029308;28;20135;-86
2023/09/25 08:42:48;;;;;;;5.18;0.93;;;17.50;99.90;;;;;;5033926;28;20716;-86
2023/09/25 08:45:20;;;;;;;2.22;1.00;;;18.00;99.90;;;;;;5017107;28;20044;-87
2023/09/25 08:47:49;;;;;;;2.75;0.88;;;17.60;99.90;;;;;;5019637;28;20092;-86
2023/09/25 08:50:21;;;;;;;2.83;0.95;;;19.80;99.90;;;;;;5037467;28;20048;-92
2023/09/25 08:52:46;;;;;;;3.72;0.75;;;18.20;99.90;;;;;;5017060;28;20068;-84
2023/09/25 08:55:19;;;;;;;2.60;0.70;;;16.90;99.90;;;;;;5017599;28;20545;-87
2023/09/25 08:57:46;;;;;;;2.00;0.60;;;18.10;99.90;;;;;;5020121;28;20740;-85
2023/09/25 09:00:24;;;;;;;3.15;0.90;;;18.80;99.90;;;;;;5016821;28;20560;-87
2023/09/25 09:02:52;;;;;;;3.90;1.02;;;19.70;99.90;;;;;;5033587;28;20053;-85
2023/09/25 09:05:20;;;;;;;4.13;1.15;;;19.60;99.90;;;;;;5034689;28;20048;-85
2023/09/25 09:08:01;;;;;;;2.45;0.73;;;19.70;99.90;;;;;;5018307;28;20043;-87
2023/09/25 09:10:34;;;;;;;1.92;0.68;;;20.20;99.90;;;;;;5033207;28;20604;-88
2023/09/25 09:13:01;;;;;;;1.75;0.70;;;20.50;99.90;;;;;;5051485;28;20040;-83
2023/09/25 09:15:29;;;;;;;3.78;0.90;;;20.70;99.90;;;;;;5018877;28;20037;-83
2023/09/25 09:17:58;;;;;;;6.03;0.80;;;20.80;99.90;;;;;;5011974;28;20041;-83
2023/09/25 09:20:38;;;;;;;2.67;0.90;;;20.90;99.90;;;;;;5029917;28;20036;-81
2023/09/25 09:23:06;;;;;;;3.53;1.27;;;21.10;99.90;;;;;;5030488;28;20105;-84
2023/09/25 09:25:32;;;;;;;1.85;0.82;;;21.40;99.90;;;;;;4996200;28;20050;-84
2023/09/25 09:27:59;;;;;;;2.38;0.60;;;21.60;99.90;;;;;;5004438;28;20147;-81
2023/09/25 09:30:32;;;;;;;4.28;0.95;;;21.70;99.50;;;;;;5023416;28;20071;-85
2023/09/25 09:33:02;;;;;;;3.10;1.00;;;21.60;98.80;;;;;;5026597;28;20064;-82
2023/09/25 09:35:34;;;;;;;2.95;0.95;;;21.20;98.80;;;;;;5006693;28;20072;-85
2023/09/25 09:38:05;;;;;;;6.32;0.95;;;21.10;99.90;;;;;;5016311;28;20025;-83
2023/09/25 09:40:32;;;;;;;4.07;0.93;;;;;;;;;;5039291;28;20521;-84
2023/09/25 09:42:58;;;;;;;4.35;1.05;;;22.30;99.90;;;;;;5016947;28;20049;-85
2023/09/25 09:45:27;;;;;;;3.85;1.15;;;20.60;99.90;;;;;;5049634;28;20151;-85
2023/09/25 09:47:55;;;;;;;5.82;1.33;;;20.50;97.90;;;;;;5018487;28;20359;-85
2023/09/25 09:50:25;;;;;;;3.20;0.70;;;20.60;98.10;;;;;;5028627;28;20451;-86
2023/09/25 09:52:51;;;;;;;2.13;0.70;;;;;;;;;;4998893;28;20041;-85
2023/09/25 09:55:20;;;;;;;4.35;1.23;;;20.90;98.00;;;;;;5032057;28;20047;-85
2023/09/25 09:57:49;;;;;;;4.28;0.70;;;21.00;98.50;;;;;;5016225;28;20049;-85
2023/09/25 10:00:41;;;;;;;2.42;1.05;;;20.90;99.90;;;;;;5049438;28;20047;-86
2023/09/25 10:03:08;;;;;;;2.38;0.60;;;21.40;98.90;;;;;;5012397;28;20044;-87
2023/09/25 10:05:50;;;;;;;2.83;0.85;;;21.30;99.90;;;;;;5011404;28;20041;-83
2023/09/25 10:08:17;;;;;;;3.03;1.00;;;21.50;97.20;;;;;;5013345;28;20043;-85
2023/09/25 10:10:48;;;;;;;1.63;0.50;;;21.90;97.60;;;;;;5030784;28;20162;-89
2023/09/25 10:13:21;;;;;;;3.20;0.80;;;22.10;96.60;;;;;;5062982;28;20171;-83
2023/09/25 10:16:00;;;;;;;2.20;0.70;;;22.00;96.80;;;;;;5028069;28;20041;-84
2023/09/25 10:18:42;;;;;;;2.60;0.60;;;22.50;97.00;;;;;;5013746;28;20037;-87
2023/09/25 10:21:14;;;;;;;3.65;0.85;;;22.40;97.80;;;;;;5014126;28;20100;-89
2023/09/25 10:23:56;;;;;;;3.78;0.82;;;22.20;96.60;;;;;;5033692;28;20539;-89
2023/09/25 10:26:25;;;;;;;2.65;1.00;;;22.10;94.60;;;;;;5003225;28;20055;-91
2023/09/25 10:29:10;;;;;;;3.78;1.00;;;21.90;96.30;;;;;;5042740;28;20056;-89
2023/09/25 10:31:43;;;;;;;3.38;0.93;;;;;;;;;;4997592;28;20040;-87
2023/09/25 10:34:15;;;;;;;3.03;0.70;;;21.90;94.50;;;;;;5007606;28;20133;-86
2023/09/25 10:36:47;;;;;;;3.58;0.77;;;22.20;96.30;;;;;;5015736;28;20053;-89
2023/09/25 10:39:17;;;;;;;3.70;1.58;;;20.00;95.40;;;;;;4998419;28;20581;-85
2023/09/25 10:42:00;;;;;;;4.07;0.80;;;21.90;96.30;;;;;;5001063;28;20029;-85
2023/09/25 10:44:28;;;;;;;4.68;1.10;;;;;;;;;;5001451;28;20052;-92
2023/09/25 10:46:54;;;;;;;4.22;1.23;;;21.20;95.70;;;;;;5033524;28;20068;-85
2023/09/25 10:49:20;;;;;;;3.28;0.88;;;21.40;97.00;;;;;;5000113;28;20065;-83
2023/09/25 10:51:53;;;;;;;2.40;0.85;;;20.30;96.60;;;;;;5034949;28;20044;-84
2023/09/25 10:54:22;;;;;;;3.17;0.80;;;19.80;98.70;;;;;;5002864;28;20069;-89
2023/09/25 10:56:52;;;;;;;3.05;1.00;;;21.00;97.80;;;;;;5002039;28;20040;-84
2023/09/25 10:59:25;;;;;;;3.72;0.80;;;20.90;97.30;;;;;;5071987;28;20760;-90
2023/09/25 11:01:57;;;;;;;3.63;0.93;;;20.90;96.90;;;;;;5005642;28;20048;-87
2023/09/25 11:04:26;;;;;;;;;;;23.30;98.20;;;;;;5024795;28;20106;-87
2023/09/25 11:06:56;;;;;;;3.65;0.80;;;20.90;97.90;;;;;;5037019;28;19970;-90
2023/09/25 11:09:26;;;;;;;3.63;1.08;;;20.90;97.80;;;;;;5031599;28;20033;-86
2023/09/25 11:12:00;;;;;;;7.10;0.95;;;21.10;99.20;;;;;;5010435;28;20147;-93
2023/09/25 11:14:38;;;;;;;4.63;1.15;;;20.80;98.30;;;;;;5012277;28;22303;-92
2023/09/25 11:17:03;;;;;;;2.35;0.68;;;20.90;98.20;;;;;;5024896;28;20072;-91
2023/09/25 11:19:29;;;;;;;5.55;1.08;;;19.20;98.40;;;;;;5023679;28;20056;-85
2023/09/25 11:22:03;;;;;;;3.03;0.80;;;21.50;99.80;;;;;;5037879;28;20064;-89
2023/09/25 11:24:33;;;;;;;4.07;0.80;;;20.90;99.00;;;;;;5019441;28;20041;-92
2023/09/25 11:27:07;;;;;;;2.33;0.90;;;20.80;99.00;;;;;;5026417;28;20052;-88
2023/09/25 11:29:35;;;;;;;4.35;0.65;;;;;;;;;;5026370;28;20044;-94
2023/09/25 11:32:10;;;;;;;3.00;1.15;;;20.80;98.50;;;;;;5022570;28;20033;-90
2023/09/25 11:35:27;;;;;;;3.97;0.82;;;20.80;99.90;;;;;;5054479;28;20048;-90
2023/09/25 11:37:56;;;;;;;3.47;0.82;;;22.60;99.10;;;;;;5016703;28;20155;-86
2023/09/25 11:40:22;;;;;;;3.80;0.90;;;;;;;;;;5022968;28;20049;-91
2023/09/25 11:42:52;;;;;;;3.85;0.77;;;;;;;;;;5023778;28;20032;-95
2023/09/25 11:45:24;;;;;;;4.45;0.80;;;20.80;97.90;;;;;;5028530;28;20490;-89
2023/09/25 11:47:50;;;;;;;3.35;1.00;;;;;;;;;;5031040;28;20061;-88
2023/09/25 11:50:17;;;;;;;3.35;1.38;;;20.70;97.30;;;;;;5058242;28;20036;-90
2023/09/25 11:52:44;;;;;;;3.05;0.95;;;20.70;97.70;;;;;;5024955;28;20115;-87
2023/09/25 11:55:14;;;;;;;3.83;1.00;;;20.70;99.90;;;;;;5025642;28;20048;-90
2023/09/25 12:15:54;;;;;;;2.88;1.08;;;22.00;99.70;;;;;;4933363;28;20070;-94
2023/09/25 12:18:20;;;;;;;5.90;1.52;;;20.80;99.50;;;;;;4970518;28;20042;-87
2023/09/25 12:20:46;;;;;;;6.43;1.30;;;20.80;99.20;;;;;;4948867;28;20069;-84
2023/09/25 12:23:20;;;;;;;2.30;0.80;;;20.80;99.40;;;;;;4956125;28;20034;-85
2023/09/25 12:25:46;;;;;;;4.28;0.93;;;20.70;98.60;;;;;;4931345;28;20057;-85
2023/09/25 12:28:12;;;;;;;5.03;1.60;;;20.70;98.60;;;;;;4947826;28;20499;-85
2023/09/25 12:30:38;;;;;;;2.33;1.08;;;21.30;99.50;;;;;;4958603;28;20053;-88
2023/09/25 12:33:05;;;;;;;2.85;0.95;;;20.70;99.00;;;;;;4985024;28;20083;-86
2023/09/25 12:35:31;;;;;;;4.28;0.80;;;20.90;99.30;;;;;;4999306;28;20044;-89
2023/09/25 12:37:57;;;;;;;3.13;1.23;;;21.20;99.40;;;;;;4987324;28;20060;-87
2023/09/25 12:40:23;;;;;;;2.25;0.90;;;20.80;98.20;;;;;;5013301;28;20117;-88
2023/09/25 12:42:49;;;;;;;4.70;0.90;;;20.70;98.00;;;;;;5057787;28;20051;-90
2023/09/25 12:45:17;;;;;;;2.30;1.00;;;21.00;98.40;;;;;;5031308;28;20028;-90
2023/09/25 12:47:43;;;;;;;4.05;1.00;;;20.90;98.40;;;;;;5053456;28;20056;-93
2023/09/25 12:50:12;;;;;;;3.20;0.85;;;20.60;98.00;;;;;;5050980;28;20040;-89
2023/09/25 12:52:38;;;;;;;3.95;0.98;;;21.30;99.00;;;;;;5036173;28;20040;-87
2023/09/25 12:55:06;;;;;;;6.20;1.02;;;20.60;98.50;;;;;;5068978;28;20040;-89
2023/09/25 12:57:32;;;;;;;2.55;0.90;;;21.00;99.20;;;;;;5033290;28;20028;-90
2023/09/25 12:59:58;;;;;;;3.72;0.93;;;20.80;99.40;;;;;;5048473;28;20043;-89
2023/09/25 13:02:24;;;;;;;4.13;0.90;;;21.00;99.20;;;;;;5027625;28;20045;-86
2023/09/25 13:04:50;;;;;;;3.58;1.23;;;21.00;99.30;;;;;;5034695;28;20040;-94
2023/09/25 13:07:16;;;;;;;2.90;0.82;;;20.90;98.50;;;;;;5031212;28;20044;-86
2023/09/25 13:09:43;;;;;;;2.67;1.05;;;20.90;97.80;;;;;;5040399;28;20116;-85
2023/09/25 13:12:09;;;;;;;5.82;1.00;;;20.90;97.80;;;;;;5027895;28;20036;-86
2023/09/25 13:14:34;;;;;;;2.53;0.80;;;22.60;99.10;;;;;;5032607;28;20086;-85
2023/09/25 13:17:00;;;;;;;4.22;0.80;;;21.00;98.00;;;;;;5036015;28;20047;-88
2023/09/25 13:19:26;;;;;;;2.58;0.85;;;21.00;99.30;;;;;;5038717;28;20075;-90
2023/09/25 13:21:52;;;;;;;3.97;1.17;;;21.10;98.00;;;;;;5032099;28;20665;-85
2023/09/25 13:24:18;;;;;;;3.90;0.98;;;21.10;99.00;;;;;;5050906;28;20043;-84
2023/09/25 13:27:17;;;;;;;6.43;1.25;;;18.30;98.70;;;;;;4984585;28;20073;-87
2023/09/25 13:29:43;;;;;;;2.72;0.90;;;21.20;98.10;;;;;;5014121;28;20045;-87